sensor_id;sensor_type;location;lat;lon;timestamp;P1;durP1;ratioP1;P2;durP2;ratioP2
19854;SDS011;10088;47.946;2.532;2023-04-28T00:00:08;9.07;;;4.53;;
19854;SDS011;10088;47.946;2.532;2023-04-28T00:02:33;7.00;;;4.37;;
19854;SDS011;10088;47.946;2.532;2023-04-28T00:04:59;4.37;;;3.97;;
19854;SDS011;10088;47.946;2.532;2023-04-28T00:07:24;7.30;;;4.10;;
19854;SDS011;10088;47.946;2.532;2023-04-28T00:09:50;4.90;;;3.73;;
19854;SDS011;10088;47.946;2.532;2023-04-28T00:12:15;6.43;;;4.20;;
19854;SDS011;10088;47.946;2.532;2023-04-28T00:14:41;9.43;;;3.83;;
19854;SDS011;10088;47.946;2.532;2023-04-28T00:17:06;8.87;;;3.73;;
19854;SDS011;10088;47.946;2.532;2023-04-28T00:19:33;6.77;;;3.90;;
19854;SDS011;10088;47.946;2.532;2023-04-28T00:21:58;6.10;;;3.90;;
19854;SDS011;10088;47.946;2.532;2023-04-28T00:24:23;4.73;;;3.53;;
19854;SDS011;10088;47.946;2.532;2023-04-28T00:26:49;4.93;;;3.67;;
19854;SDS011;10088;47.946;2.532;2023-04-28T00:29:15;3.50;;;3.20;;
19854;SDS011;10088;47.946;2.532;2023-04-28T00:31:40;4.70;;;3.57;;
19854;SDS011;10088;47.946;2.532;2023-04-28T00:34:05;7.97;;;3.57;;
19854;SDS011;10088;47.946;2.532;2023-04-28T00:36:30;10.87;;;4.23;;
19854;SDS011;10088;47.946;2.532;2023-04-28T00:38:57;3.57;;;3.27;;
19854;SDS011;10088;47.946;2.532;2023-04-28T00:41:23;4.33;;;3.50;;
19854;SDS011;10088;47.946;2.532;2023-04-28T00:43:48;6.67;;;3.70;;
19854;SDS011;10088;47.946;2.532;2023-04-28T00:46:19;8.37;;;4.00;;
19854;SDS011;10088;47.946;2.532;2023-04-28T00:48:45;8.77;;;3.40;;
19854;SDS011;10088;47.946;2.532;2023-04-28T00:51:10;7.77;;;3.57;;
19854;SDS011;10088;47.946;2.532;2023-04-28T00:53:35;8.03;;;3.53;;
19854;SDS011;10088;47.946;2.532;2023-04-28T00:56:01;4.90;;;3.40;;
19854;SDS011;10088;47.946;2.532;2023-04-28T00:58:27;3.87;;;3.47;;
19854;SDS011;10088;47.946;2.532;2023-04-28T01:01:00;4.80;;;3.57;;
19854;SDS011;10088;47.946;2.532;2023-04-28T01:03:25;3.93;;;3.53;;
19854;SDS011;10088;47.946;2.532;2023-04-28T01:05:50;5.00;;;3.60;;
19854;SDS011;10088;47.946;2.532;2023-04-28T01:08:16;5.10;;;3.60;;
19854;SDS011;10088;47.946;2.532;2023-04-28T01:10:44;4.20;;;3.87;;
19854;SDS011;10088;47.946;2.532;2023-04-28T01:13:09;4.80;;;3.50;;
19854;SDS011;10088;47.946;2.532;2023-04-28T01:15:35;6.80;;;3.50;;
19854;SDS011;10088;47.946;2.532;2023-04-28T01:18:00;5.57;;;4.00;;
19854;SDS011;10088;47.946;2.532;2023-04-28T01:20:25;9.50;;;4.13;;
19854;SDS011;10088;47.946;2.532;2023-04-28T01:22:50;7.63;;;4.00;;
19854;SDS011;10088;47.946;2.532;2023-04-28T01:25:16;5.73;;;3.93;;
19854;SDS011;10088;47.946;2.532;2023-04-28T01:27:41;15.90;;;4.27;;
19854;SDS011;10088;47.946;2.532;2023-04-28T01:30:06;4.40;;;4.00;;
19854;SDS011;10088;47.946;2.532;2023-04-28T01:32:32;7.47;;;3.67;;
19854;SDS011;10088;47.946;2.532;2023-04-28T01:34:57;3.97;;;3.60;;
19854;SDS011;10088;47.946;2.532;2023-04-28T01:37:22;4.30;;;3.63;;
19854;SDS011;10088;47.946;2.532;2023-04-28T01:39:48;4.80;;;3.87;;
19854;SDS011;10088;47.946;2.532;2023-04-28T01:42:13;6.40;;;3.43;;
19854;SDS011;10088;47.946;2.532;2023-04-28T01:44:38;8.20;;;3.80;;
19854;SDS011;10088;47.946;2.532;2023-04-28T01:47:05;4.97;;;3.60;;
19854;SDS011;10088;47.946;2.532;2023-04-28T01:49:30;6.23;;;4.23;;
19854;SDS011;10088;47.946;2.532;2023-04-28T01:51:56;5.33;;;4.17;;
19854;SDS011;10088;47.946;2.532;2023-04-28T01:54:21;4.27;;;3.70;;
19854;SDS011;10088;47.946;2.532;2023-04-28T01:56:46;5.20;;;3.97;;
19854;SDS011;10088;47.946;2.532;2023-04-28T01:59:12;12.07;;;4.83;;
19854;SDS011;10088;47.946;2.532;2023-04-28T02:01:37;3.57;;;3.17;;
19854;SDS011;10088;47.946;2.532;2023-04-28T02:04:02;7.70;;;4.40;;
19854;SDS011;10088;47.946;2.532;2023-04-28T02:06:27;9.83;;;3.50;;
19854;SDS011;10088;47.946;2.532;2023-04-28T02:08:53;6.03;;;4.30;;
19854;SDS011;10088;47.946;2.532;2023-04-28T02:11:18;4.37;;;3.90;;
19854;SDS011;10088;47.946;2.532;2023-04-28T02:13:43;4.97;;;3.67;;
19854;SDS011;10088;47.946;2.532;2023-04-28T02:16:09;8.80;;;3.87;;
19854;SDS011;10088;47.946;2.532;2023-04-28T02:18:34;8.07;;;3.67;;
19854;SDS011;10088;47.946;2.532;2023-04-28T02:21:10;10.83;;;3.63;;
19854;SDS011;10088;47.946;2.532;2023-04-28T02:23:35;3.97;;;3.50;;
19854;SDS011;10088;47.946;2.532;2023-04-28T02:26:01;5.33;;;3.60;;
19854;SDS011;10088;47.946;2.532;2023-04-28T02:28:27;4.00;;;3.67;;
19854;SDS011;10088;47.946;2.532;2023-04-28T02:31:01;5.23;;;4.10;;
19854;SDS011;10088;47.946;2.532;2023-04-28T02:33:27;9.37;;;4.00;;
19854;SDS011;10088;47.946;2.532;2023-04-28T02:35:59;4.37;;;3.97;;
19854;SDS011;10088;47.946;2.532;2023-04-28T02:38:25;4.20;;;3.53;;
19854;SDS011;10088;47.946;2.532;2023-04-28T02:41:00;4.67;;;4.00;;
19854;SDS011;10088;47.946;2.532;2023-04-28T02:43:26;6.57;;;3.40;;
19854;SDS011;10088;47.946;2.532;2023-04-28T02:45:51;8.93;;;3.00;;
19854;SDS011;10088;47.946;2.532;2023-04-28T02:48:17;6.07;;;4.67;;
19854;SDS011;10088;47.946;2.532;2023-04-28T02:50:42;4.23;;;3.83;;
19854;SDS011;10088;47.946;2.532;2023-04-28T02:53:07;3.67;;;3.37;;
19854;SDS011;10088;47.946;2.532;2023-04-28T02:55:33;6.83;;;3.70;;
19854;SDS011;10088;47.946;2.532;2023-04-28T02:57:58;9.07;;;3.37;;
19854;SDS011;10088;47.946;2.532;2023-04-28T03:00:23;5.13;;;3.47;;
19854;SDS011;10088;47.946;2.532;2023-04-28T03:02:48;4.20;;;3.80;;
19854;SDS011;10088;47.946;2.532;2023-04-28T03:05:14;6.00;;;3.77;;
19854;SDS011;10088;47.946;2.532;2023-04-28T03:07:39;4.47;;;3.37;;
19854;SDS011;10088;47.946;2.532;2023-04-28T03:10:05;6.90;;;3.73;;
19854;SDS011;10088;47.946;2.532;2023-04-28T03:12:30;4.77;;;3.20;;
19854;SDS011;10088;47.946;2.532;2023-04-28T03:14:55;5.73;;;3.67;;
19854;SDS011;10088;47.946;2.532;2023-04-28T03:17:21;4.20;;;3.80;;
19854;SDS011;10088;47.946;2.532;2023-04-28T03:19:46;5.70;;;3.20;;
19854;SDS011;10088;47.946;2.532;2023-04-28T03:22:11;3.87;;;3.47;;
19854;SDS011;10088;47.946;2.532;2023-04-28T03:24:36;5.47;;;3.57;;
19854;SDS011;10088;47.946;2.532;2023-04-28T03:27:02;5.27;;;4.20;;
19854;SDS011;10088;47.946;2.532;2023-04-28T03:29:29;7.50;;;4.27;;
19854;SDS011;10088;47.946;2.532;2023-04-28T03:31:55;7.27;;;4.37;;
19854;SDS011;10088;47.946;2.532;2023-04-28T03:34:20;5.10;;;4.00;;
19854;SDS011;10088;47.946;2.532;2023-04-28T03:36:45;4.70;;;4.00;;
19854;SDS011;10088;47.946;2.532;2023-04-28T03:39:10;6.70;;;4.07;;
19854;SDS011;10088;47.946;2.532;2023-04-28T03:41:36;6.83;;;4.13;;
19854;SDS011;10088;47.946;2.532;2023-04-28T03:44:01;5.53;;;4.17;;
19854;SDS011;10088;47.946;2.532;2023-04-28T03:46:26;4.90;;;4.47;;
19854;SDS011;10088;47.946;2.532;2023-04-28T03:48:51;4.77;;;3.97;;
19854;SDS011;10088;47.946;2.532;2023-04-28T03:51:17;8.13;;;4.40;;
19854;SDS011;10088;47.946;2.532;2023-04-28T03:53:42;7.47;;;3.97;;
19854;SDS011;10088;47.946;2.532;2023-04-28T03:56:08;4.30;;;3.90;;
19854;SDS011;10088;47.946;2.532;2023-04-28T03:58:33;6.83;;;4.60;;
19854;SDS011;10088;47.946;2.532;2023-04-28T04:00:59;5.47;;;4.80;;
19854;SDS011;10088;47.946;2.532;2023-04-28T04:03:24;11.63;;;4.50;;
19854;SDS011;10088;47.946;2.532;2023-04-28T04:05:51;5.33;;;4.57;;
19854;SDS011;10088;47.946;2.532;2023-04-28T04:08:16;8.53;;;4.30;;
19854;SDS011;10088;47.946;2.532;2023-04-28T04:10:41;8.53;;;4.50;;
19854;SDS011;10088;47.946;2.532;2023-04-28T04:13:07;18.23;;;4.47;;
19854;SDS011;10088;47.946;2.532;2023-04-28T04:15:32;4.97;;;4.10;;
19854;SDS011;10088;47.946;2.532;2023-04-28T04:17:57;7.73;;;4.47;;
19854;SDS011;10088;47.946;2.532;2023-04-28T04:20:23;5.67;;;4.50;;
19854;SDS011;10088;47.946;2.532;2023-04-28T04:22:48;8.03;;;4.60;;
19854;SDS011;10088;47.946;2.532;2023-04-28T04:25:13;8.30;;;4.90;;
19854;SDS011;10088;47.946;2.532;2023-04-28T04:27:38;5.33;;;4.83;;
19854;SDS011;10088;47.946;2.532;2023-04-28T04:30:04;6.57;;;4.73;;
19854;SDS011;10088;47.946;2.532;2023-04-28T04:32:29;6.00;;;4.53;;
19854;SDS011;10088;47.946;2.532;2023-04-28T04:34:55;12.67;;;4.80;;
19854;SDS011;10088;47.946;2.532;2023-04-28T04:37:21;5.33;;;4.83;;
19854;SDS011;10088;47.946;2.532;2023-04-28T04:39:46;8.20;;;4.77;;
19854;SDS011;10088;47.946;2.532;2023-04-28T04:42:12;6.53;;;5.03;;
19854;SDS011;10088;47.946;2.532;2023-04-28T04:44:37;6.77;;;4.90;;
19854;SDS011;10088;47.946;2.532;2023-04-28T04:47:03;7.27;;;5.00;;
19854;SDS011;10088;47.946;2.532;2023-04-28T04:49:28;7.73;;;5.20;;
19854;SDS011;10088;47.946;2.532;2023-04-28T04:51:53;7.50;;;5.47;;
19854;SDS011;10088;47.946;2.532;2023-04-28T04:54:19;5.17;;;4.53;;
19854;SDS011;10088;47.946;2.532;2023-04-28T04:56:44;10.57;;;5.33;;
19854;SDS011;10088;47.946;2.532;2023-04-28T04:59:09;8.20;;;4.97;;
19854;SDS011;10088;47.946;2.532;2023-04-28T05:01:35;6.27;;;5.20;;
19854;SDS011;10088;47.946;2.532;2023-04-28T05:04:00;8.50;;;5.23;;
19854;SDS011;10088;47.946;2.532;2023-04-28T05:06:25;8.60;;;4.67;;
19854;SDS011;10088;47.946;2.532;2023-04-28T05:08:51;7.23;;;5.07;;
19854;SDS011;10088;47.946;2.532;2023-04-28T05:11:16;7.00;;;4.63;;
19854;SDS011;10088;47.946;2.532;2023-04-28T05:13:41;6.37;;;4.50;;
19854;SDS011;10088;47.946;2.532;2023-04-28T05:16:07;5.63;;;4.63;;
19854;SDS011;10088;47.946;2.532;2023-04-28T05:18:32;5.70;;;5.20;;
19854;SDS011;10088;47.946;2.532;2023-04-28T05:20:57;5.67;;;4.63;;
19854;SDS011;10088;47.946;2.532;2023-04-28T05:23:23;6.67;;;4.93;;
19854;SDS011;10088;47.946;2.532;2023-04-28T05:25:49;6.17;;;5.03;;
19854;SDS011;10088;47.946;2.532;2023-04-28T05:28:14;13.87;;;5.00;;
19854;SDS011;10088;47.946;2.532;2023-04-28T05:30:39;6.73;;;4.93;;
19854;SDS011;10088;47.946;2.532;2023-04-28T05:33:05;7.67;;;5.17;;
19854;SDS011;10088;47.946;2.532;2023-04-28T05:35:30;5.00;;;4.37;;
19854;SDS011;10088;47.946;2.532;2023-04-28T05:37:56;6.67;;;4.53;;
19854;SDS011;10088;47.946;2.532;2023-04-28T05:40:21;7.17;;;4.63;;
19854;SDS011;10088;47.946;2.532;2023-04-28T05:42:47;8.90;;;4.93;;
19854;SDS011;10088;47.946;2.532;2023-04-28T05:45:12;4.93;;;4.43;;
19854;SDS011;10088;47.946;2.532;2023-04-28T05:47:37;6.83;;;4.77;;
19854;SDS011;10088;47.946;2.532;2023-04-28T05:50:03;9.07;;;4.73;;
19854;SDS011;10088;47.946;2.532;2023-04-28T05:52:28;10.67;;;4.50;;
19854;SDS011;10088;47.946;2.532;2023-04-28T05:54:53;5.53;;;4.57;;
19854;SDS011;10088;47.946;2.532;2023-04-28T05:57:18;9.57;;;4.90;;
19854;SDS011;10088;47.946;2.532;2023-04-28T05:59:44;7.23;;;4.50;;
19854;SDS011;10088;47.946;2.532;2023-04-28T06:02:09;7.03;;;4.43;;
19854;SDS011;10088;47.946;2.532;2023-04-28T06:04:35;9.47;;;4.77;;
19854;SDS011;10088;47.946;2.532;2023-04-28T06:07:00;6.10;;;4.77;;
19854;SDS011;10088;47.946;2.532;2023-04-28T06:09:25;8.10;;;4.50;;
19854;SDS011;10088;47.946;2.532;2023-04-28T06:11:51;7.60;;;4.80;;
19854;SDS011;10088;47.946;2.532;2023-04-28T06:14:16;5.10;;;4.60;;
19854;SDS011;10088;47.946;2.532;2023-04-28T06:16:41;7.47;;;4.30;;
19854;SDS011;10088;47.946;2.532;2023-04-28T06:19:07;5.03;;;4.53;;
19854;SDS011;10088;47.946;2.532;2023-04-28T06:21:32;7.60;;;4.67;;
19854;SDS011;10088;47.946;2.532;2023-04-28T06:23:58;8.30;;;4.73;;
19854;SDS011;10088;47.946;2.532;2023-04-28T06:26:23;8.23;;;4.80;;
19854;SDS011;10088;47.946;2.532;2023-04-28T06:28:48;8.40;;;4.47;;
19854;SDS011;10088;47.946;2.532;2023-04-28T06:31:14;8.03;;;4.43;;
19854;SDS011;10088;47.946;2.532;2023-04-28T06:33:40;4.67;;;4.20;;
19854;SDS011;10088;47.946;2.532;2023-04-28T06:36:05;4.83;;;4.33;;
19854;SDS011;10088;47.946;2.532;2023-04-28T06:38:31;7.70;;;4.07;;
19854;SDS011;10088;47.946;2.532;2023-04-28T06:40:56;5.63;;;4.37;;
19854;SDS011;10088;47.946;2.532;2023-04-28T06:43:21;5.27;;;4.10;;
19854;SDS011;10088;47.946;2.532;2023-04-28T06:45:47;7.10;;;3.80;;
19854;SDS011;10088;47.946;2.532;2023-04-28T06:48:12;7.43;;;4.47;;
19854;SDS011;10088;47.946;2.532;2023-04-28T06:50:37;5.13;;;4.30;;
19854;SDS011;10088;47.946;2.532;2023-04-28T06:53:03;4.67;;;4.23;;
19854;SDS011;10088;47.946;2.532;2023-04-28T06:55:28;5.03;;;4.40;;
19854;SDS011;10088;47.946;2.532;2023-04-28T06:57:53;4.97;;;4.40;;
19854;SDS011;10088;47.946;2.532;2023-04-28T07:00:19;4.83;;;4.20;;
19854;SDS011;10088;47.946;2.532;2023-04-28T07:02:44;7.17;;;3.93;;
19854;SDS011;10088;47.946;2.532;2023-04-28T07:05:10;4.93;;;3.70;;
19854;SDS011;10088;47.946;2.532;2023-04-28T07:07:35;5.10;;;3.50;;
19854;SDS011;10088;47.946;2.532;2023-04-28T07:10:02;5.87;;;3.90;;
19854;SDS011;10088;47.946;2.532;2023-04-28T07:12:28;4.83;;;4.33;;
19854;SDS011;10088;47.946;2.532;2023-04-28T07:14:53;5.10;;;4.60;;
19854;SDS011;10088;47.946;2.532;2023-04-28T07:17:19;4.33;;;3.93;;
19854;SDS011;10088;47.946;2.532;2023-04-28T07:19:45;4.87;;;3.70;;
19854;SDS011;10088;47.946;2.532;2023-04-28T07:22:10;7.37;;;4.07;;
19854;SDS011;10088;47.946;2.532;2023-04-28T07:24:35;4.23;;;3.83;;
19854;SDS011;10088;47.946;2.532;2023-04-28T07:27:01;4.87;;;3.73;;
19854;SDS011;10088;47.946;2.532;2023-04-28T07:29:27;4.17;;;3.77;;
19854;SDS011;10088;47.946;2.532;2023-04-28T07:31:57;4.23;;;3.93;;
19854;SDS011;10088;47.946;2.532;2023-04-28T07:34:23;7.27;;;4.10;;
19854;SDS011;10088;47.946;2.532;2023-04-28T07:36:48;4.03;;;3.40;;
19854;SDS011;10088;47.946;2.532;2023-04-28T07:39:13;5.57;;;3.53;;
19854;SDS011;10088;47.946;2.532;2023-04-28T07:41:39;4.47;;;3.70;;
19854;SDS011;10088;47.946;2.532;2023-04-28T07:44:05;4.10;;;3.60;;
19854;SDS011;10088;47.946;2.532;2023-04-28T07:46:31;4.90;;;4.20;;
19854;SDS011;10088;47.946;2.532;2023-04-28T07:48:56;6.37;;;4.10;;
19854;SDS011;10088;47.946;2.532;2023-04-28T07:51:21;8.63;;;4.20;;
19854;SDS011;10088;47.946;2.532;2023-04-28T07:53:46;5.17;;;3.87;;
19854;SDS011;10088;47.946;2.532;2023-04-28T07:56:12;11.07;;;5.70;;
19854;SDS011;10088;47.946;2.532;2023-04-28T07:58:37;13.00;;;8.50;;
19854;SDS011;10088;47.946;2.532;2023-04-28T08:01:02;12.27;;;6.23;;
19854;SDS011;10088;47.946;2.532;2023-04-28T08:03:28;6.00;;;5.10;;
19854;SDS011;10088;47.946;2.532;2023-04-28T08:05:53;4.83;;;3.70;;
19854;SDS011;10088;47.946;2.532;2023-04-28T08:08:18;5.27;;;3.57;;
19854;SDS011;10088;47.946;2.532;2023-04-28T08:10:44;4.67;;;3.87;;
19854;SDS011;10088;47.946;2.532;2023-04-28T08:13:09;7.20;;;3.63;;
19854;SDS011;10088;47.946;2.532;2023-04-28T08:15:35;4.53;;;3.50;;
19854;SDS011;10088;47.946;2.532;2023-04-28T08:18:00;4.73;;;3.00;;
19854;SDS011;10088;47.946;2.532;2023-04-28T08:20:25;4.10;;;3.50;;
19854;SDS011;10088;47.946;2.532;2023-04-28T08:22:51;3.47;;;3.00;;
19854;SDS011;10088;47.946;2.532;2023-04-28T08:25:16;3.30;;;3.00;;
19854;SDS011;10088;47.946;2.532;2023-04-28T08:27:42;4.53;;;2.80;;
19854;SDS011;10088;47.946;2.532;2023-04-28T08:30:07;4.10;;;2.90;;
19854;SDS011;10088;47.946;2.532;2023-04-28T08:32:33;3.80;;;2.90;;
19854;SDS011;10088;47.946;2.532;2023-04-28T08:34:58;3.27;;;2.60;;
19854;SDS011;10088;47.946;2.532;2023-04-28T08:37:25;3.27;;;2.77;;
19854;SDS011;10088;47.946;2.532;2023-04-28T08:39:50;4.17;;;2.90;;
19854;SDS011;10088;47.946;2.532;2023-04-28T08:42:23;5.40;;;2.93;;
19854;SDS011;10088;47.946;2.532;2023-04-28T08:44:49;3.03;;;2.70;;
19854;SDS011;10088;47.946;2.532;2023-04-28T08:47:15;3.47;;;2.63;;
19854;SDS011;10088;47.946;2.532;2023-04-28T08:49:43;3.30;;;2.20;;
19854;SDS011;10088;47.946;2.532;2023-04-28T08:52:10;3.17;;;2.07;;
19854;SDS011;10088;47.946;2.532;2023-04-28T08:54:35;3.67;;;2.13;;
19854;SDS011;10088;47.946;2.532;2023-04-28T08:57:02;3.77;;;2.47;;
19854;SDS011;10088;47.946;2.532;2023-04-28T08:59:29;2.87;;;2.10;;
19854;SDS011;10088;47.946;2.532;2023-04-28T09:01:55;2.97;;;2.17;;
19854;SDS011;10088;47.946;2.532;2023-04-28T09:04:21;3.00;;;2.20;;
19854;SDS011;10088;47.946;2.532;2023-04-28T09:06:46;2.50;;;2.00;;
19854;SDS011;10088;47.946;2.532;2023-04-28T09:09:27;2.17;;;1.97;;
19854;SDS011;10088;47.946;2.532;2023-04-28T09:11:57;2.97;;;1.90;;
19854;SDS011;10088;47.946;2.532;2023-04-28T09:14:23;3.40;;;1.80;;
19854;SDS011;10088;47.946;2.532;2023-04-28T09:16:49;3.67;;;2.07;;
19854;SDS011;10088;47.946;2.532;2023-04-28T09:19:15;3.23;;;2.20;;
19854;SDS011;10088;47.946;2.532;2023-04-28T09:21:59;2.13;;;1.83;;
19854;SDS011;10088;47.946;2.532;2023-04-28T09:24:31;3.93;;;1.80;;
19854;SDS011;10088;47.946;2.532;2023-04-28T09:27:02;4.00;;;1.70;;
19854;SDS011;10088;47.946;2.532;2023-04-28T09:29:28;4.60;;;1.90;;
19854;SDS011;10088;47.946;2.532;2023-04-28T09:31:54;3.70;;;1.80;;
19854;SDS011;10088;47.946;2.532;2023-04-28T09:34:49;1.67;;;1.57;;
19854;SDS011;10088;47.946;2.532;2023-04-28T09:37:18;3.40;;;2.10;;
19854;SDS011;10088;47.946;2.532;2023-04-28T09:39:47;1.93;;;1.70;;
19854;SDS011;10088;47.946;2.532;2023-04-28T09:44:59;2.33;;;1.50;;
19854;SDS011;10088;47.946;2.532;2023-04-28T09:47:26;4.50;;;1.67;;
19854;SDS011;10088;47.946;2.532;2023-04-28T09:49:52;2.13;;;1.67;;
19854;SDS011;10088;47.946;2.532;2023-04-28T09:52:19;3.57;;;1.80;;
19854;SDS011;10088;47.946;2.532;2023-04-28T09:54:44;6.53;;;1.90;;
19854;SDS011;10088;47.946;2.532;2023-04-28T09:57:10;4.17;;;2.10;;
19854;SDS011;10088;47.946;2.532;2023-04-28T09:59:36;3.73;;;1.60;;
19854;SDS011;10088;47.946;2.532;2023-04-28T10:02:01;4.03;;;1.70;;
19854;SDS011;10088;47.946;2.532;2023-04-28T10:04:28;4.50;;;1.80;;
19854;SDS011;10088;47.946;2.532;2023-04-28T10:06:57;1.60;;;1.50;;
19854;SDS011;10088;47.946;2.532;2023-04-28T10:09:23;3.30;;;1.70;;
19854;SDS011;10088;47.946;2.532;2023-04-28T10:11:50;2.80;;;1.40;;
19854;SDS011;10088;47.946;2.532;2023-04-28T10:14:16;2.33;;;1.80;;
19854;SDS011;10088;47.946;2.532;2023-04-28T10:16:42;3.47;;;1.70;;
19854;SDS011;10088;47.946;2.532;2023-04-28T10:19:08;2.20;;;1.70;;
19854;SDS011;10088;47.946;2.532;2023-04-28T10:21:34;1.90;;;1.33;;
19854;SDS011;10088;47.946;2.532;2023-04-28T10:29:13;3.77;;;1.30;;
19854;SDS011;10088;47.946;2.532;2023-04-28T10:31:39;3.37;;;1.53;;
19854;SDS011;10088;47.946;2.532;2023-04-28T10:34:24;2.37;;;1.43;;
19854;SDS011;10088;47.946;2.532;2023-04-28T10:36:52;4.07;;;1.60;;
19854;SDS011;10088;47.946;2.532;2023-04-28T10:39:19;2.27;;;1.50;;
19854;SDS011;10088;47.946;2.532;2023-04-28T10:41:45;2.93;;;1.37;;
19854;SDS011;10088;47.946;2.532;2023-04-28T10:57:41;1.20;;;1.03;;
19854;SDS011;10088;47.946;2.532;2023-04-28T11:00:25;1.70;;;1.27;;
19854;SDS011;10088;47.946;2.532;2023-04-28T11:02:51;2.03;;;1.30;;
19854;SDS011;10088;47.946;2.532;2023-04-28T11:05:18;2.97;;;1.40;;
19854;SDS011;10088;47.946;2.532;2023-04-28T11:11:01;1.20;;;1.10;;
19854;SDS011;10088;47.946;2.532;2023-04-28T11:13:28;1.83;;;1.27;;
19854;SDS011;10088;47.946;2.532;2023-04-28T11:16:01;2.27;;;1.20;;
19854;SDS011;10088;47.946;2.532;2023-04-28T11:18:27;2.20;;;1.13;;
19854;SDS011;10088;47.946;2.532;2023-04-28T11:20:52;0.80;;;0.80;;
19854;SDS011;10088;47.946;2.532;2023-04-28T11:23:21;2.87;;;1.50;;
19854;SDS011;10088;47.946;2.532;2023-04-28T11:25:55;1.33;;;0.93;;
19854;SDS011;10088;47.946;2.532;2023-04-28T11:28:22;3.17;;;1.13;;
19854;SDS011;10088;47.946;2.532;2023-04-28T11:30:47;2.27;;;1.20;;
19854;SDS011;10088;47.946;2.532;2023-04-28T11:33:12;1.07;;;0.97;;
19854;SDS011;10088;47.946;2.532;2023-04-28T11:35:41;1.30;;;1.10;;
19854;SDS011;10088;47.946;2.532;2023-04-28T11:38:06;4.80;;;1.10;;
19854;SDS011;10088;47.946;2.532;2023-04-28T11:40:31;1.20;;;1.10;;
19854;SDS011;10088;47.946;2.532;2023-04-28T11:42:57;1.30;;;1.03;;
19854;SDS011;10088;47.946;2.532;2023-04-28T11:45:23;3.10;;;1.30;;
19854;SDS011;10088;47.946;2.532;2023-04-28T11:47:49;2.33;;;1.30;;
19854;SDS011;10088;47.946;2.532;2023-04-28T11:50:14;1.40;;;1.30;;
19854;SDS011;10088;47.946;2.532;2023-04-28T11:52:49;4.70;;;1.10;;
19854;SDS011;10088;47.946;2.532;2023-04-28T11:55:15;1.33;;;1.10;;
19854;SDS011;10088;47.946;2.532;2023-04-28T11:57:41;2.00;;;1.23;;
19854;SDS011;10088;47.946;2.532;2023-04-28T12:00:13;1.97;;;1.00;;
19854;SDS011;10088;47.946;2.532;2023-04-28T12:02:38;1.60;;;1.07;;
19854;SDS011;10088;47.946;2.532;2023-04-28T12:05:04;1.50;;;1.00;;
19854;SDS011;10088;47.946;2.532;2023-04-28T12:07:38;1.57;;;1.00;;
19854;SDS011;10088;47.946;2.532;2023-04-28T12:12:35;2.10;;;1.20;;
19854;SDS011;10088;47.946;2.532;2023-04-28T12:15:04;5.07;;;1.10;;
19854;SDS011;10088;47.946;2.532;2023-04-28T12:17:34;1.67;;;1.03;;
19854;SDS011;10088;47.946;2.532;2023-04-28T12:20:00;3.43;;;1.20;;
19854;SDS011;10088;47.946;2.532;2023-04-28T12:22:26;1.87;;;1.10;;
19854;SDS011;10088;47.946;2.532;2023-04-28T12:28:05;8.50;;;1.20;;
19854;SDS011;10088;47.946;2.532;2023-04-28T12:30:35;2.83;;;1.20;;
19854;SDS011;10088;47.946;2.532;2023-04-28T12:33:03;1.10;;;1.00;;
19854;SDS011;10088;47.946;2.532;2023-04-28T12:35:28;1.30;;;1.20;;
19854;SDS011;10088;47.946;2.532;2023-04-28T12:37:54;7.20;;;1.40;;
19854;SDS011;10088;47.946;2.532;2023-04-28T12:40:21;2.23;;;1.20;;
19854;SDS011;10088;47.946;2.532;2023-04-28T12:42:46;3.67;;;1.17;;
19854;SDS011;10088;47.946;2.532;2023-04-28T12:45:11;1.50;;;1.13;;
19854;SDS011;10088;47.946;2.532;2023-04-28T12:47:37;1.43;;;1.17;;
19854;SDS011;10088;47.946;2.532;2023-04-28T12:50:05;2.67;;;1.07;;
19854;SDS011;10088;47.946;2.532;2023-04-28T12:52:31;1.13;;;0.90;;
19854;SDS011;10088;47.946;2.532;2023-04-28T12:54:58;2.00;;;1.20;;
19854;SDS011;10088;47.946;2.532;2023-04-28T12:57:23;1.37;;;0.80;;
19854;SDS011;10088;47.946;2.532;2023-04-28T12:59:48;0.97;;;0.67;;
19854;SDS011;10088;47.946;2.532;2023-04-28T13:02:16;3.30;;;0.80;;
19854;SDS011;10088;47.946;2.532;2023-04-28T13:04:41;1.37;;;0.90;;
19854;SDS011;10088;47.946;2.532;2023-04-28T13:07:07;2.90;;;0.93;;
19854;SDS011;10088;47.946;2.532;2023-04-28T13:09:32;0.97;;;0.70;;
19854;SDS011;10088;47.946;2.532;2023-04-28T13:11:58;1.33;;;1.00;;
19854;SDS011;10088;47.946;2.532;2023-04-28T13:14:24;1.93;;;0.60;;
19854;SDS011;10088;47.946;2.532;2023-04-28T13:16:50;1.63;;;0.90;;
19854;SDS011;10088;47.946;2.532;2023-04-28T13:19:16;0.80;;;0.60;;
19854;SDS011;10088;47.946;2.532;2023-04-28T13:21:42;2.40;;;0.70;;
19854;SDS011;10088;47.946;2.532;2023-04-28T13:24:07;2.07;;;1.03;;
19854;SDS011;10088;47.946;2.532;2023-04-28T13:26:33;1.40;;;1.10;;
19854;SDS011;10088;47.946;2.532;2023-04-28T13:28:59;0.60;;;0.60;;
19854;SDS011;10088;47.946;2.532;2023-04-28T13:31:24;1.07;;;0.90;;
19854;SDS011;10088;47.946;2.532;2023-04-28T13:33:50;1.90;;;1.13;;
19854;SDS011;10088;47.946;2.532;2023-04-28T13:36:15;1.40;;;0.70;;
19854;SDS011;10088;47.946;2.532;2023-04-28T13:38:40;0.80;;;0.67;;
19854;SDS011;10088;47.946;2.532;2023-04-28T13:41:07;1.93;;;0.80;;
19854;SDS011;10088;47.946;2.532;2023-04-28T13:43:32;2.87;;;0.80;;
19854;SDS011;10088;47.946;2.532;2023-04-28T13:45:58;2.73;;;0.73;;
19854;SDS011;10088;47.946;2.532;2023-04-28T13:48:23;1.13;;;0.70;;
19854;SDS011;10088;47.946;2.532;2023-04-28T13:50:49;1.07;;;0.70;;
19854;SDS011;10088;47.946;2.532;2023-04-28T13:53:14;1.33;;;0.60;;
19854;SDS011;10088;47.946;2.532;2023-04-28T13:55:41;1.00;;;0.70;;
19854;SDS011;10088;47.946;2.532;2023-04-28T13:58:06;3.23;;;0.90;;
19854;SDS011;10088;47.946;2.532;2023-04-28T14:00:34;5.10;;;1.00;;
19854;SDS011;10088;47.946;2.532;2023-04-28T14:03:01;0.70;;;0.70;;
19854;SDS011;10088;47.946;2.532;2023-04-28T14:05:26;1.47;;;0.90;;
19854;SDS011;10088;47.946;2.532;2023-04-28T14:07:52;0.87;;;0.60;;
19854;SDS011;10088;47.946;2.532;2023-04-28T14:10:18;1.17;;;0.87;;
19854;SDS011;10088;47.946;2.532;2023-04-28T14:12:43;1.63;;;0.80;;
19854;SDS011;10088;47.946;2.532;2023-04-28T14:15:08;0.90;;;0.80;;
19854;SDS011;10088;47.946;2.532;2023-04-28T14:17:34;0.90;;;0.60;;
19854;SDS011;10088;47.946;2.532;2023-04-28T14:20:02;1.23;;;0.90;;
19854;SDS011;10088;47.946;2.532;2023-04-28T14:22:28;0.87;;;0.80;;
19854;SDS011;10088;47.946;2.532;2023-04-28T14:24:53;1.83;;;0.67;;
19854;SDS011;10088;47.946;2.532;2023-04-28T14:27:19;0.70;;;0.60;;
19854;SDS011;10088;47.946;2.532;2023-04-28T14:29:44;1.13;;;0.60;;
19854;SDS011;10088;47.946;2.532;2023-04-28T14:32:12;1.67;;;0.67;;
19854;SDS011;10088;47.946;2.532;2023-04-28T14:34:38;4.20;;;0.77;;
19854;SDS011;10088;47.946;2.532;2023-04-28T14:37:03;0.70;;;0.50;;
19854;SDS011;10088;47.946;2.532;2023-04-28T14:39:28;4.73;;;0.80;;
19854;SDS011;10088;47.946;2.532;2023-04-28T14:41:54;0.70;;;0.67;;
19854;SDS011;10088;47.946;2.532;2023-04-28T14:44:19;1.50;;;1.00;;
19854;SDS011;10088;47.946;2.532;2023-04-28T14:46:44;0.90;;;0.63;;
19854;SDS011;10088;47.946;2.532;2023-04-28T14:49:10;1.20;;;0.60;;
19854;SDS011;10088;47.946;2.532;2023-04-28T14:51:35;1.23;;;0.40;;
19854;SDS011;10088;47.946;2.532;2023-04-28T14:54:00;2.50;;;0.60;;
19854;SDS011;10088;47.946;2.532;2023-04-28T14:56:26;0.60;;;0.50;;
19854;SDS011;10088;47.946;2.532;2023-04-28T14:58:51;1.33;;;0.43;;
19854;SDS011;10088;47.946;2.532;2023-04-28T15:01:17;0.40;;;0.40;;
19854;SDS011;10088;47.946;2.532;2023-04-28T15:03:43;1.90;;;0.40;;
19854;SDS011;10088;47.946;2.532;2023-04-28T15:06:08;3.70;;;0.80;;
19854;SDS011;10088;47.946;2.532;2023-04-28T15:08:34;1.37;;;0.80;;
19854;SDS011;10088;47.946;2.532;2023-04-28T15:11:00;1.27;;;0.97;;